PWSweather.com
Personal Weather Stations
Station Observations
METEOC500
Santo Antonio, FunchalPT 2020

Santo AntonioFunchalPT 2020

Lat: 32.678227, Lon: -16.945054

Elevation: 1669.94751

Station Type: WH Series

High Low Average
Temperature 67.3°F19.6°C 56.1°F13.4°C 59.5°F15.3°C
Dew Point 58.1°F14.5°C 50.2°F10.1°C 53.5°F11.9°C
Winds 6.3 mph 10.1 kmh Calm Calm 3.0 mph WSW4.8 kmh WSW
Wind Gusts 15.0 mph24.1 kmh -- 8.0 mph12.9 kmh
Humidity 90% 67% 81%
Pressure 30.18 in1022.0 mb 30.02 in1016.6 mb -
Precipitation 0.01 in0.3 mm - -
Hour Temp Dew Point Humidity Winds Wind Gusts Pressure Precip Precip Rate Daily Precip Total
12:01 AM 56.8°F13.8°C 50.7°F10.4°C 80% 6.3 mph N10.1 kmh N 7.6 mph12.2 kmh 30.18 in1022.0 mb 0.00 in0.0 mm 0.00 in0.0 mm 0.00 in0.0 mm
12:16 AM 57.0°F13.9°C 50.9°F10.5°C 80% 4.7 mph N7.6 kmh N 7.6 mph12.2 kmh 30.18 in1022.0 mb 0.00 in0.0 mm 0.00 in0.0 mm 0.00 in0.0 mm
12:31 AM 57.0°F13.9°C 50.9°F10.5°C 80% 6.0 mph NNW9.7 kmh NNW 12.5 mph20.1 kmh 30.17 in1021.7 mb 0.00 in0.0 mm 0.00 in0.0 mm 0.00 in0.0 mm
12:46 AM 57.0°F13.9°C 50.9°F10.5°C 80% 3.8 mph NNW6.1 kmh NNW 10.1 mph16.3 kmh 30.17 in1021.7 mb 0.00 in0.0 mm 0.00 in0.0 mm 0.00 in0.0 mm
01:01 AM 56.7°F13.7°C 50.9°F10.5°C 81% 3.8 mph N6.1 kmh N 7.6 mph12.2 kmh 30.17 in1021.7 mb 0.00 in0.0 mm 0.00 in0.0 mm 0.00 in0.0 mm
01:17 AM 56.7°F13.7°C 50.5°F10.3°C 80% 3.8 mph NNW6.1 kmh NNW 7.6 mph12.2 kmh 30.16 in1021.3 mb 0.00 in0.0 mm 0.00 in0.0 mm 0.00 in0.0 mm
01:32 AM 56.8°F13.8°C 50.7°F10.4°C 80% 6.3 mph NNW10.1 kmh NNW 7.6 mph12.2 kmh 30.16 in1021.3 mb 0.00 in0.0 mm 0.00 in0.0 mm 0.00 in0.0 mm
01:47 AM 56.8°F13.8°C 50.7°F10.4°C 80% 6.0 mph NNW9.7 kmh NNW 7.6 mph12.2 kmh 30.16 in1021.3 mb 0.00 in0.0 mm 0.00 in0.0 mm 0.00 in0.0 mm
02:02 AM 57.0°F13.9°C 50.5°F10.3°C 79% 3.1 mph N5.0 kmh N 10.1 mph16.3 kmh 30.15 in1021.0 mb 0.00 in0.0 mm 0.00 in0.0 mm 0.00 in0.0 mm
02:17 AM 56.8°F13.8°C 51.4°F10.8°C 82% 3.8 mph NNW6.1 kmh NNW 7.6 mph12.2 kmh 30.16 in1021.3 mb 0.00 in0.0 mm 0.00 in0.0 mm 0.00 in0.0 mm
02:32 AM 56.3°F13.5°C 50.2°F10.1°C 80% 4.0 mph N6.4 kmh N 7.6 mph12.2 kmh 30.16 in1021.3 mb 0.00 in0.0 mm 0.00 in0.0 mm 0.00 in0.0 mm
02:47 AM 56.7°F13.7°C 50.5°F10.3°C 80% 3.1 mph NNW5.0 kmh NNW 4.9 mph7.9 kmh 30.16 in1021.3 mb 0.00 in0.0 mm 0.00 in0.0 mm 0.00 in0.0 mm
03:02 AM 57.2°F14.0°C 51.1°F10.6°C 80% 1.6 mph NNW2.6 kmh NNW 7.6 mph12.2 kmh 30.15 in1021.0 mb 0.00 in0.0 mm 0.00 in0.0 mm 0.00 in0.0 mm
03:17 AM 57.4°F14.1°C 51.3°F10.7°C 80% 1.6 mph NNW2.6 kmh NNW 4.9 mph7.9 kmh 30.16 in1021.3 mb 0.00 in0.0 mm 0.00 in0.0 mm 0.00 in0.0 mm
04:06 AM 57.7°F14.3°C 51.3°F10.7°C 79% 4.0 mph N6.4 kmh N 7.6 mph12.2 kmh 30.14 in1020.7 mb 0.00 in0.0 mm 0.00 in0.0 mm 0.00 in0.0 mm
04:21 AM 57.9°F14.4°C 51.4°F10.8°C 79% 1.8 mph NNW2.9 kmh NNW 4.9 mph7.9 kmh 30.14 in1020.7 mb 0.00 in0.0 mm 0.00 in0.0 mm 0.00 in0.0 mm
04:36 AM 57.4°F14.1°C 51.3°F10.7°C 80% 2.9 mph NNW4.7 kmh NNW 4.9 mph7.9 kmh 30.13 in1020.3 mb 0.00 in0.0 mm 0.00 in0.0 mm 0.00 in0.0 mm
04:51 AM 57.7°F14.3°C 51.6°F10.9°C 80% 1.3 mph NNW2.1 kmh NNW 4.9 mph7.9 kmh 30.13 in1020.3 mb 0.00 in0.0 mm 0.00 in0.0 mm 0.00 in0.0 mm
05:06 AM 57.6°F14.2°C 51.8°F11.0°C 81% 2.5 mph NNW4.0 kmh NNW 4.9 mph7.9 kmh 30.13 in1020.3 mb 0.00 in0.0 mm 0.00 in0.0 mm 0.00 in0.0 mm
05:22 AM 57.0°F13.9°C 51.6°F10.9°C 82% 3.8 mph NNW6.1 kmh NNW 7.6 mph12.2 kmh 30.13 in1020.3 mb 0.00 in0.0 mm 0.00 in0.0 mm 0.00 in0.0 mm
05:37 AM 56.7°F13.7°C 50.9°F10.5°C 81% 3.8 mph NNW6.1 kmh NNW 7.6 mph12.2 kmh 30.13 in1020.3 mb 0.00 in0.0 mm 0.00 in0.0 mm 0.00 in0.0 mm
05:52 AM 56.7°F13.7°C 51.3°F10.7°C 82% 3.8 mph NNW6.1 kmh NNW 7.6 mph12.2 kmh 30.13 in1020.3 mb 0.00 in0.0 mm 0.00 in0.0 mm 0.00 in0.0 mm
06:07 AM 56.3°F13.5°C 50.9°F10.5°C 82% 4.0 mph NNW6.4 kmh NNW 7.6 mph12.2 kmh 30.13 in1020.3 mb 0.00 in0.0 mm 0.00 in0.0 mm 0.00 in0.0 mm
06:22 AM 56.5°F13.6°C 50.7°F10.4°C 81% 3.8 mph NNW6.1 kmh NNW 4.9 mph7.9 kmh 30.12 in1020.0 mb 0.00 in0.0 mm 0.00 in0.0 mm 0.00 in0.0 mm
06:37 AM 56.8°F13.8°C 50.7°F10.4°C 80% 2.2 mph NNW3.5 kmh NNW 4.9 mph7.9 kmh 30.13 in1020.3 mb 0.00 in0.0 mm 0.00 in0.0 mm 0.00 in0.0 mm
06:52 AM 56.8°F13.8°C 51.1°F10.6°C 81% 2.9 mph NW4.7 kmh NW 7.6 mph12.2 kmh 30.13 in1020.3 mb 0.00 in0.0 mm 0.00 in0.0 mm 0.00 in0.0 mm
07:07 AM 56.7°F13.7°C 50.9°F10.5°C 81% 3.8 mph NNW6.1 kmh NNW 7.6 mph12.2 kmh 30.14 in1020.7 mb 0.00 in0.0 mm 0.00 in0.0 mm 0.00 in0.0 mm
07:22 AM 56.8°F13.8°C 50.7°F10.4°C 80% 3.8 mph NW6.1 kmh NW 7.6 mph12.2 kmh 30.14 in1020.7 mb 0.00 in0.0 mm 0.00 in0.0 mm 0.00 in0.0 mm
07:37 AM 56.8°F13.8°C 51.1°F10.6°C 81% 2.2 mph NNW3.5 kmh NNW 4.9 mph7.9 kmh 30.14 in1020.7 mb 0.00 in0.0 mm 0.00 in0.0 mm 0.00 in0.0 mm
07:52 AM 56.8°F13.8°C 51.4°F10.8°C 82% 3.8 mph NNW6.1 kmh NNW 4.9 mph7.9 kmh 30.14 in1020.7 mb 0.00 in0.0 mm 0.00 in0.0 mm 0.00 in0.0 mm
08:07 AM 56.3°F13.5°C 51.3°F10.7°C 83% 4.7 mph NNW7.6 kmh NNW 7.6 mph12.2 kmh 30.14 in1020.7 mb 0.00 in0.0 mm 0.00 in0.0 mm 0.00 in0.0 mm
08:22 AM 56.1°F13.4°C 50.7°F10.4°C 82% 4.5 mph N7.2 kmh N 7.6 mph12.2 kmh 30.15 in1021.0 mb 0.00 in0.0 mm 0.00 in0.0 mm 0.00 in0.0 mm
08:37 AM 56.1°F13.4°C 50.7°F10.4°C 82% 2.5 mph NNW4.0 kmh NNW 4.9 mph7.9 kmh 30.15 in1021.0 mb 0.00 in0.0 mm 0.00 in0.0 mm 0.00 in0.0 mm
08:52 AM 56.7°F13.7°C 51.3°F10.7°C 82% 4.0 mph N6.4 kmh N 7.6 mph12.2 kmh 30.15 in1021.0 mb 0.00 in0.0 mm 0.00 in0.0 mm 0.00 in0.0 mm
09:07 AM 57.6°F14.2°C 51.4°F10.8°C 80% 2.9 mph NNW4.7 kmh NNW 4.9 mph7.9 kmh 30.15 in1021.0 mb 0.00 in0.0 mm 0.00 in0.0 mm 0.00 in0.0 mm
09:22 AM 59.2°F15.1°C 52.3°F11.3°C 78% Calm Calm 4.9 mph7.9 kmh 30.15 in1021.0 mb 0.00 in0.0 mm 0.00 in0.0 mm 0.00 in0.0 mm
09:37 AM 61.7°F16.5°C 53.2°F11.8°C 74% 3.4 mph SSE5.5 kmh SSE 7.6 mph12.2 kmh 30.15 in1021.0 mb 0.00 in0.0 mm 0.00 in0.0 mm 0.00 in0.0 mm
09:52 AM 64.0°F17.8°C 55.9°F13.3°C 75% 1.3 mph S2.1 kmh S 7.6 mph12.2 kmh 30.15 in1021.0 mb 0.00 in0.0 mm 0.00 in0.0 mm 0.00 in0.0 mm
10:08 AM 64.9°F18.3°C 57.9°F14.4°C 78% 3.4 mph E5.5 kmh E 10.1 mph16.3 kmh 30.15 in1021.0 mb 0.00 in0.0 mm 0.00 in0.0 mm 0.00 in0.0 mm
10:23 AM 63.9°F17.7°C 56.8°F13.8°C 78% 0.9 mph SSW1.4 kmh SSW 7.6 mph12.2 kmh 30.15 in1021.0 mb 0.00 in0.0 mm 0.00 in0.0 mm 0.00 in0.0 mm
10:38 AM 63.0°F17.2°C 58.1°F14.5°C 84% 4.0 mph ESE6.4 kmh ESE 10.1 mph16.3 kmh 30.15 in1021.0 mb 0.00 in0.0 mm 0.00 in0.0 mm 0.00 in0.0 mm
10:53 AM 62.1°F16.7°C 57.7°F14.3°C 86% 0.2 mph SSE0.3 kmh SSE 7.6 mph12.2 kmh 30.15 in1021.0 mb 0.00 in0.0 mm 0.00 in0.0 mm 0.00 in0.0 mm
11:08 AM 61.3°F16.3°C 56.8°F13.8°C 85% 3.1 mph SE5.0 kmh SE 7.6 mph12.2 kmh 30.15 in1021.0 mb 0.00 in0.0 mm 0.00 in0.0 mm 0.00 in0.0 mm
11:23 AM 61.7°F16.5°C 57.4°F14.1°C 86% 5.4 mph SSW8.7 kmh SSW 10.1 mph16.3 kmh 30.15 in1021.0 mb 0.00 in0.0 mm 0.00 in0.0 mm 0.00 in0.0 mm
11:38 AM 62.1°F16.7°C 57.2°F14.0°C 84% 3.8 mph SE6.1 kmh SE 10.1 mph16.3 kmh 30.14 in1020.7 mb 0.00 in0.0 mm 0.00 in0.0 mm 0.00 in0.0 mm
11:53 AM 61.9°F16.6°C 57.4°F14.1°C 85% 2.5 mph S4.0 kmh S 10.1 mph16.3 kmh 30.14 in1020.7 mb 0.00 in0.0 mm 0.00 in0.0 mm 0.00 in0.0 mm
12:08 PM 61.3°F16.3°C 57.4°F14.1°C 87% 2.9 mph S4.7 kmh S 7.6 mph12.2 kmh 30.13 in1020.3 mb 0.00 in0.0 mm 0.00 in0.0 mm 0.00 in0.0 mm
12:23 PM 61.0°F16.1°C 57.4°F14.1°C 88% 4.9 mph SE7.9 kmh SE 7.6 mph12.2 kmh 30.12 in1020.0 mb 0.00 in0.0 mm 0.00 in0.0 mm 0.00 in0.0 mm
12:38 PM 60.6°F15.9°C 57.4°F14.1°C 89% 0.2 mph SE0.3 kmh SE 7.6 mph12.2 kmh 30.11 in1019.6 mb 0.00 in0.0 mm 0.00 in0.0 mm 0.00 in0.0 mm
12:53 PM 60.3°F15.7°C 57.4°F14.1°C 90% 4.0 mph S6.4 kmh S 7.6 mph12.2 kmh 30.11 in1019.6 mb 0.00 in0.0 mm 0.00 in0.0 mm 0.00 in0.0 mm
01:08 PM 60.3°F15.7°C 57.0°F13.9°C 89% Calm Calm 7.6 mph12.2 kmh 30.10 in1019.3 mb 0.00 in0.0 mm 0.00 in0.0 mm 0.00 in0.0 mm
01:23 PM 60.6°F15.9°C 56.7°F13.7°C 87% 3.4 mph S5.5 kmh S 7.6 mph12.2 kmh 30.10 in1019.3 mb 0.00 in0.0 mm 0.00 in0.0 mm 0.00 in0.0 mm
01:38 PM 61.3°F16.3°C 57.4°F14.1°C 87% 2.5 mph ESE4.0 kmh ESE 10.1 mph16.3 kmh 30.09 in1019.0 mb 0.00 in0.0 mm 0.00 in0.0 mm 0.00 in0.0 mm
01:53 PM 61.7°F16.5°C 58.1°F14.5°C 88% 5.4 mph ESE8.7 kmh ESE 10.1 mph16.3 kmh 30.08 in1018.6 mb 0.00 in0.0 mm 0.00 in0.0 mm 0.00 in0.0 mm
02:08 PM 61.7°F16.5°C 57.4°F14.1°C 86% 2.9 mph S4.7 kmh S 10.1 mph16.3 kmh 30.06 in1017.9 mb 0.00 in0.0 mm 0.00 in0.0 mm 0.00 in0.0 mm
02:23 PM 62.1°F16.7°C 56.5°F13.6°C 82% 4.7 mph S7.6 kmh S 12.5 mph20.1 kmh 30.06 in1017.9 mb 0.00 in0.0 mm 0.00 in0.0 mm 0.00 in0.0 mm
02:38 PM 62.6°F17.0°C 55.6°F13.1°C 78% 4.7 mph ESE7.6 kmh ESE 15.0 mph24.1 kmh 30.05 in1017.6 mb 0.00 in0.0 mm 0.00 in0.0 mm 0.00 in0.0 mm
02:54 PM 63.0°F17.2°C 53.4°F11.9°C 71% 0.9 mph SE1.4 kmh SE 12.5 mph20.1 kmh 30.04 in1017.3 mb 0.00 in0.0 mm 0.00 in0.0 mm 0.00 in0.0 mm
03:09 PM 64.4°F18.0°C 54.0°F12.2°C 69% 3.4 mph S5.5 kmh S 15.0 mph24.1 kmh 30.04 in1017.3 mb 0.00 in0.0 mm 0.00 in0.0 mm 0.00 in0.0 mm
03:24 PM 66.2°F19.0°C 54.9°F12.7°C 67% 6.0 mph S9.7 kmh S 12.5 mph20.1 kmh 30.03 in1016.9 mb 0.00 in0.0 mm 0.00 in0.0 mm 0.00 in0.0 mm
03:39 PM 66.7°F19.3°C 56.3°F13.5°C 69% 2.9 mph SSE4.7 kmh SSE 10.1 mph16.3 kmh 30.03 in1016.9 mb 0.00 in0.0 mm 0.00 in0.0 mm 0.00 in0.0 mm
03:54 PM 66.9°F19.4°C 55.9°F13.3°C 68% 4.5 mph SE7.2 kmh SE 10.1 mph16.3 kmh 30.03 in1016.9 mb 0.00 in0.0 mm 0.00 in0.0 mm 0.00 in0.0 mm
04:09 PM 67.1°F19.5°C 55.8°F13.2°C 67% 3.8 mph SSW6.1 kmh SSW 10.1 mph16.3 kmh 30.02 in1016.6 mb 0.00 in0.0 mm 0.00 in0.0 mm 0.00 in0.0 mm
04:24 PM 67.3°F19.6°C 56.3°F13.5°C 68% 3.4 mph SE5.5 kmh SE 7.6 mph12.2 kmh 30.02 in1016.6 mb 0.00 in0.0 mm 0.00 in0.0 mm 0.00 in0.0 mm
04:39 PM 66.6°F19.2°C 57.2°F14.0°C 72% 2.9 mph SE4.7 kmh SE 10.1 mph16.3 kmh 30.03 in1016.9 mb 0.00 in0.0 mm 0.00 in0.0 mm 0.00 in0.0 mm
04:54 PM 64.9°F18.3°C 56.1°F13.4°C 73% 4.0 mph SSE6.4 kmh SSE 7.6 mph12.2 kmh 30.03 in1016.9 mb 0.00 in0.0 mm 0.00 in0.0 mm 0.00 in0.0 mm
05:09 PM 64.2°F17.9°C 56.5°F13.6°C 76% 1.6 mph SW2.6 kmh SW 10.1 mph16.3 kmh 30.04 in1017.3 mb 0.00 in0.0 mm 0.00 in0.0 mm 0.00 in0.0 mm
05:24 PM 63.5°F17.5°C 56.5°F13.6°C 78% 1.6 mph SSW2.6 kmh SSW 7.6 mph12.2 kmh 30.03 in1016.9 mb 0.00 in0.0 mm 0.00 in0.0 mm 0.00 in0.0 mm
05:39 PM 62.8°F17.1°C 56.8°F13.8°C 81% 0.2 mph SSW0.3 kmh SSW 7.6 mph12.2 kmh 30.03 in1016.9 mb 0.00 in0.0 mm 0.00 in0.0 mm 0.00 in0.0 mm
05:54 PM 61.9°F16.6°C 55.9°F13.3°C 81% Calm Calm 4.9 mph7.9 kmh 30.03 in1016.9 mb 0.00 in0.0 mm 0.00 in0.0 mm 0.00 in0.0 mm
06:09 PM 61.2°F16.2°C 55.6°F13.1°C 82% Calm Calm -- 30.03 in1016.9 mb 0.00 in0.0 mm 0.00 in0.0 mm 0.00 in0.0 mm
06:24 PM 60.6°F15.9°C 55.4°F13.0°C 83% Calm Calm 2.5 mph4.0 kmh 30.03 in1016.9 mb 0.00 in0.0 mm 0.00 in0.0 mm 0.00 in0.0 mm
06:39 PM 60.1°F15.6°C 55.2°F12.9°C 84% Calm Calm 4.9 mph7.9 kmh 30.03 in1016.9 mb 0.00 in0.0 mm 0.00 in0.0 mm 0.00 in0.0 mm
06:54 PM 59.5°F15.3°C 55.0°F12.8°C 85% 2.5 mph NW4.0 kmh NW 4.9 mph7.9 kmh 30.02 in1016.6 mb 0.00 in0.0 mm 0.00 in0.0 mm 0.00 in0.0 mm
07:09 PM 59.2°F15.1°C 54.7°F12.6°C 85% 4.7 mph NW7.6 kmh NW 7.6 mph12.2 kmh 30.02 in1016.6 mb 0.00 in0.0 mm 0.00 in0.0 mm 0.00 in0.0 mm
07:24 PM 58.8°F14.9°C 54.3°F12.4°C 85% 5.4 mph NNW8.7 kmh NNW 7.6 mph12.2 kmh 30.02 in1016.6 mb 0.00 in0.0 mm 0.00 in0.0 mm 0.00 in0.0 mm
07:40 PM 58.3°F14.6°C 53.4°F11.9°C 84% 4.0 mph N6.4 kmh N 7.6 mph12.2 kmh 30.02 in1016.6 mb 0.00 in0.0 mm 0.00 in0.0 mm 0.00 in0.0 mm
07:55 PM 58.1°F14.5°C 52.9°F11.6°C 83% 4.5 mph N7.2 kmh N 7.6 mph12.2 kmh 30.02 in1016.6 mb 0.00 in0.0 mm 0.00 in0.0 mm 0.00 in0.0 mm
08:10 PM 57.7°F14.3°C 52.9°F11.6°C 84% 6.0 mph N9.7 kmh N 10.1 mph16.3 kmh 30.02 in1016.6 mb 0.00 in0.0 mm 0.00 in0.0 mm 0.00 in0.0 mm
08:25 PM 57.6°F14.2°C 52.2°F11.2°C 82% 4.5 mph NW7.2 kmh NW 7.6 mph12.2 kmh 30.03 in1016.9 mb 0.00 in0.0 mm 0.00 in0.0 mm 0.00 in0.0 mm
08:40 PM 57.4°F14.1°C 51.6°F10.9°C 81% 3.8 mph NNW6.1 kmh NNW 7.6 mph12.2 kmh 30.03 in1016.9 mb 0.00 in0.0 mm 0.00 in0.0 mm 0.00 in0.0 mm
08:55 PM 57.4°F14.1°C 51.3°F10.7°C 80% 4.5 mph N7.2 kmh N 7.6 mph12.2 kmh 30.03 in1016.9 mb 0.00 in0.0 mm 0.00 in0.0 mm 0.00 in0.0 mm
09:10 PM 57.4°F14.1°C 51.3°F10.7°C 80% 4.0 mph NNW6.4 kmh NNW 7.6 mph12.2 kmh 30.03 in1016.9 mb 0.00 in0.0 mm 0.00 in0.0 mm 0.00 in0.0 mm
09:25 PM 57.4°F14.1°C 50.5°F10.3°C 78% 4.0 mph NNW6.4 kmh NNW 10.1 mph16.3 kmh 30.03 in1016.9 mb 0.00 in0.0 mm 0.00 in0.0 mm 0.00 in0.0 mm
09:40 PM 57.6°F14.2°C 51.4°F10.8°C 80% 4.7 mph NNW7.6 kmh NNW 10.1 mph16.3 kmh 30.04 in1017.3 mb 0.00 in0.0 mm 0.00 in0.0 mm 0.00 in0.0 mm
09:55 PM 57.7°F14.3°C 50.9°F10.5°C 78% 4.9 mph NNW7.9 kmh NNW 10.1 mph16.3 kmh 30.04 in1017.3 mb 0.00 in0.0 mm 0.00 in0.0 mm 0.00 in0.0 mm
10:10 PM 58.3°F14.6°C 51.4°F10.8°C 78% 1.3 mph NW2.1 kmh NW 4.9 mph7.9 kmh 30.05 in1017.6 mb 0.00 in0.0 mm 0.00 in0.0 mm 0.00 in0.0 mm
10:25 PM 58.6°F14.8°C 53.4°F11.9°C 83% 0.2 mph NW0.3 kmh NW 4.9 mph7.9 kmh 30.05 in1017.6 mb 0.01 in0.3 mm 0.04 in1.0 mm 0.01 in0.3 mm
10:40 PM 58.1°F14.5°C 54.5°F12.5°C 88% 5.6 mph NNW9.0 kmh NNW 7.6 mph12.2 kmh 30.04 in1017.3 mb 0.01 in0.3 mm 0.00 in0.0 mm 0.01 in0.3 mm
10:55 PM 56.8°F13.8°C 53.2°F11.8°C 88% 4.5 mph N7.2 kmh N 7.6 mph12.2 kmh 30.04 in1017.3 mb 0.01 in0.3 mm 0.00 in0.0 mm 0.01 in0.3 mm
11:10 PM 56.3°F13.5°C 52.9°F11.6°C 88% 4.7 mph N7.6 kmh N 7.6 mph12.2 kmh 30.04 in1017.3 mb 0.01 in0.3 mm 0.00 in0.0 mm 0.01 in0.3 mm
11:25 PM 56.3°F13.5°C 52.9°F11.6°C 88% 1.8 mph NW2.9 kmh NW 7.6 mph12.2 kmh 30.04 in1017.3 mb 0.00 in0.0 mm 0.00 in0.0 mm 0.01 in0.3 mm
11:41 PM 56.3°F13.5°C 52.9°F11.6°C 88% Calm Calm 4.9 mph7.9 kmh 30.04 in1017.3 mb 0.00 in0.0 mm 0.00 in0.0 mm 0.01 in0.3 mm
11:56 PM 56.8°F13.8°C 52.7°F11.5°C 86% 3.8 mph N6.1 kmh N 4.9 mph7.9 kmh 30.04 in1017.3 mb 0.00 in0.0 mm 0.00 in0.0 mm 0.01 in0.3 mm